Time;durP1;ratioP1;P1;durP2;ratioP2;P2;SDS_P1;SDS_P2;PMS_P1;PMS_P2;Temp;Humidity;BMP_temperature;BMP_pressure;BME280_temperature;BME280_humidity;BME280_pressure;Samples;Min_cycle;Max_cycle;Signal;HPM_P1;HPM_P2
2021/11/19 00:03:25;;;;;;;0.20;0.10;;;10.70;99.90;;;;;;21039024;28;20233;-66
2021/11/19 00:13:30;;;;;;;0.20;0.10;;;10.90;99.90;;;;;;21037942;28;20287;-70
2021/11/19 00:23:34;;;;;;;0.20;0.10;;;10.80;99.90;;;;;;21079278;28;20680;-67
2021/11/19 00:33:41;;;;;;;0.20;0.10;;;10.70;99.90;;;;;;21076718;28;20200;-67
2021/11/19 00:43:45;;;;;;;0.20;0.10;;;10.60;99.90;;;;;;21077299;28;20307;-67
2021/11/19 00:53:53;;;;;;;0.20;0.10;;;10.50;99.90;;;;;;21059229;28;20200;-67
2021/11/19 01:03:57;;;;;;;0.20;0.10;;;10.50;99.90;;;;;;21057354;28;20705;-67
2021/11/19 01:14:04;;;;;;;0.20;0.10;;;10.50;99.90;;;;;;21050515;28;20286;-68
2021/11/19 01:24:08;;;;;;;0.20;0.10;;;10.50;99.90;;;;;;21013335;28;20579;-67
2021/11/19 01:34:14;;;;;;;0.20;0.10;;;10.50;99.90;;;;;;21013139;28;20220;-68
2021/11/19 01:44:20;;;;;;;0.20;0.10;;;10.40;99.90;;;;;;21053632;28;20224;-67
2021/11/19 01:54:29;;;;;;;0.20;0.10;;;10.40;99.90;;;;;;21071763;28;20188;-67
2021/11/19 02:04:35;;;;;;;0.20;0.10;;;10.40;99.90;;;;;;21071891;28;20315;-67
2021/11/19 02:14:49;;;;;;;0.20;0.10;;;10.30;99.90;;;;;;21000581;28;20280;-67
2021/11/19 02:24:56;;;;;;;0.20;0.10;;;10.30;99.90;;;;;;20985801;28;20333;-67
2021/11/19 02:35:02;;;;;;;0.20;0.10;;;10.30;99.90;;;;;;21015968;28;20214;-67
2021/11/19 02:45:08;;;;;;;0.20;0.10;;;10.20;99.90;;;;;;21069075;28;20310;-68
2021/11/19 02:55:17;;;;;;;0.20;0.10;;;10.20;99.90;;;;;;21032814;28;20302;-68
2021/11/19 03:05:23;;;;;;;0.20;0.10;;;10.30;99.90;;;;;;21067861;28;20396;-67
2021/11/19 03:15:31;;;;;;;0.20;0.10;;;10.20;99.90;;;;;;21008849;28;20284;-67
2021/11/19 03:25:37;;;;;;;0.20;0.10;;;10.20;99.90;;;;;;20983244;28;20228;-69
2021/11/19 03:35:42;;;;;;;0.50;0.50;;;10.20;99.90;;;;;;21018745;28;20279;-68
2021/11/19 03:45:50;;;;;;;0.20;0.10;;;10.20;99.90;;;;;;21065409;28;20228;-67
2021/11/19 03:55:57;;;;;;;0.20;0.10;;;10.10;99.90;;;;;;21029742;28;20279;-66
2021/11/19 04:06:01;;;;;;;0.20;0.10;;;10.00;99.90;;;;;;21035782;28;20232;-68
2021/11/19 04:16:09;;;;;;;0.20;0.10;;;10.00;99.90;;;;;;21068459;28;20200;-68
2021/11/19 04:26:13;;;;;;;0.20;0.10;;;10.00;99.90;;;;;;21061496;28;20286;-68
2021/11/19 04:36:18;;;;;;;0.20;0.10;;;9.90;99.90;;;;;;21046206;28;20287;-68
2021/11/19 04:46:22;;;;;;;0.30;0.30;;;9.80;99.90;;;;;;21078048;28;20227;-67
2021/11/19 04:56:28;;;;;;;0.20;0.10;;;9.80;99.90;;;;;;21070299;28;20282;-67
2021/11/19 05:06:31;;;;;;;0.20;0.10;;;9.70;99.90;;;;;;21073283;28;20320;-68
2021/11/19 05:16:37;;;;;;;0.20;0.10;;;9.70;99.90;;;;;;21039315;28;20194;-68
2021/11/19 05:26:44;;;;;;;0.20;0.10;;;9.80;99.90;;;;;;21073632;28;20613;-68
2021/11/19 05:36:49;;;;;;;0.20;0.10;;;9.80;99.90;;;;;;21055221;28;20241;-68
2021/11/19 05:46:53;;;;;;;0.20;0.10;;;9.80;99.90;;;;;;21072802;28;20451;-68
2021/11/19 05:56:58;;;;;;;0.20;0.10;;;9.70;99.90;;;;;;21052349;28;20197;-69
2021/11/19 06:07:02;;;;;;;0.20;0.00;;;9.70;99.90;;;;;;20908790;28;20267;-68
2021/11/19 06:17:13;;;;;;;0.20;0.10;;;9.70;99.90;;;;;;20831433;28;20287;-67
2021/11/19 06:27:22;;;;;;;0.20;0.10;;;9.70;99.90;;;;;;20819472;28;20229;-65
2021/11/19 06:37:28;;;;;;;0.20;0.10;;;9.70;99.90;;;;;;20818115;28;20625;-67
2021/11/19 06:47:32;;;;;;;0.20;0.10;;;9.60;99.90;;;;;;20818230;28;20240;-69
2021/11/19 06:57:37;;;;;;;0.20;0.10;;;9.60;99.90;;;;;;20814202;28;20280;-68
2021/11/19 07:07:41;;;;;;;0.20;0.10;;;9.60;99.90;;;;;;20825171;28;20329;-68
2021/11/19 07:17:48;;;;;;;0.20;0.10;;;9.80;99.90;;;;;;20888790;28;20204;-67
2021/11/19 07:27:54;;;;;;;0.20;0.10;;;9.80;99.90;;;;;;20896873;28;20305;-67
2021/11/19 07:37:59;;;;;;;0.20;0.10;;;10.10;99.90;;;;;;20898034;28;20543;-67
2021/11/19 07:48:04;;;;;;;0.20;0.10;;;10.50;99.90;;;;;;20909113;28;20225;-67
2021/11/19 07:58:09;;;;;;;0.20;0.10;;;10.80;99.90;;;;;;20916845;28;20319;-66
2021/11/19 08:08:13;;;;;;;0.20;0.10;;;11.30;99.90;;;;;;21077710;28;20303;-68
2021/11/19 08:18:21;;;;;;;0.20;0.10;;;11.70;99.90;;;;;;20995234;28;20524;-69
2021/11/19 08:28:26;;;;;;;0.20;0.10;;;11.90;99.90;;;;;;20957331;28;20323;-67
2021/11/19 08:38:32;;;;;;;0.20;0.10;;;12.10;99.90;;;;;;20992914;28;20254;-68
2021/11/19 08:48:38;;;;;;;0.20;0.10;;;12.20;99.90;;;;;;20989861;28;20724;-67
2021/11/19 08:58:44;;;;;;;0.20;0.03;;;12.40;99.90;;;;;;20989909;28;20315;-67
2021/11/19 09:08:51;;;;;;;0.20;0.10;;;13.00;99.90;;;;;;20992923;28;20853;-67
2021/11/19 09:19:11;;;;;;;0.20;0.10;;;13.50;99.90;;;;;;21018241;28;20192;-68
2021/11/19 09:29:17;;;;;;;0.20;0.00;;;13.90;99.90;;;;;;20989187;28;20572;-68
2021/11/19 09:39:26;;;;;;;0.20;0.10;;;14.50;99.90;;;;;;20987084;28;20196;-69
2021/11/19 09:50:15;;;;;;;0.20;0.10;;;15.20;99.90;;;;;;20997959;28;20216;-70
2021/11/19 10:00:28;;;;;;;0.20;0.00;;;15.20;99.90;;;;;;21045331;28;20771;-68
2021/11/19 10:10:58;;;;;;;0.20;0.00;;;15.60;99.90;;;;;;21018115;28;20688;-69
2021/11/19 10:21:08;;;;;;;0.20;0.10;;;15.90;99.90;;;;;;21064424;28;20200;-69
2021/11/19 10:31:32;;;;;;;0.20;0.10;;;16.40;99.90;;;;;;21063666;28;20245;-68
2021/11/19 10:42:11;;;;;;;0.20;0.10;;;16.80;99.90;;;;;;21044136;28;20227;-63
2021/11/19 10:52:51;;;;;;;0.20;0.00;;;17.30;99.90;;;;;;20980053;28;20204;-67
2021/11/19 11:02:57;;;;;;;0.20;0.10;;;18.20;99.90;;;;;;20981787;28;20338;-68
2021/11/19 11:13:01;;;;;;;0.20;0.10;;;18.20;99.90;;;;;;21019297;28;20261;-67
2021/11/19 11:23:26;;;;;;;0.20;0.20;;;18.70;99.90;;;;;;21059969;28;20228;-69
2021/11/19 11:33:32;;;;;;;0.20;0.00;;;19.00;99.90;;;;;;21079626;28;20279;-68
2021/11/19 11:43:40;;;;;;;0.20;0.20;;;18.90;99.90;;;;;;21042405;28;20220;-67
2021/11/19 11:53:58;;;;;;;0.20;0.00;;;19.40;99.90;;;;;;20994249;28;20199;-66
2021/11/19 12:04:07;;;;;;;0.20;0.00;;;19.70;99.90;;;;;;20993651;28;20233;-68
2021/11/19 12:14:36;;;;;;;0.20;0.00;;;19.90;99.90;;;;;;21040640;28;20253;-69
2021/11/19 12:24:47;;;;;;;0.20;0.10;;;20.50;99.90;;;;;;21058454;28;20224;-67
2021/11/19 12:34:58;;;;;;;0.20;0.10;;;20.50;99.90;;;;;;21075230;28;20219;-68
2021/11/19 12:45:16;;;;;;;0.20;0.10;;;20.60;99.90;;;;;;21026141;28;20708;-69
2021/11/19 12:55:38;;;;;;;0.20;0.10;;;20.40;99.90;;;;;;20990561;28;20673;-69
2021/11/19 13:06:03;;;;;;;0.20;0.00;;;20.60;99.90;;;;;;20988608;28;20307;-70
2021/11/19 13:16:40;;;;;;;0.20;0.10;;;19.60;99.90;;;;;;21051237;28;20228;-69
2021/11/19 13:26:50;;;;;;;0.20;0.00;;;19.40;99.90;;;;;;21069702;28;20254;-69
2021/11/19 13:37:20;;;;;;;0.20;0.10;;;19.50;99.90;;;;;;21045729;28;20615;-69
2021/11/19 13:47:55;;;;;;;0.20;0.00;;;20.00;99.90;;;;;;20998670;28;20225;-69
2021/11/19 13:58:16;;;;;;;0.20;0.00;;;20.70;99.90;;;;;;20965880;28;20200;-69
2021/11/19 14:08:24;;;;;;;0.20;0.00;;;21.00;99.90;;;;;;20983947;28;20266;-69
2021/11/19 14:18:32;;;;;;;0.20;0.03;;;21.30;99.90;;;;;;21048091;28;20223;-69
2021/11/19 14:28:48;;;;;;;0.20;0.00;;;21.20;99.90;;;;;;21067418;28;20285;-69
2021/11/19 14:38:57;;;;;;;0.20;0.10;;;20.00;99.90;;;;;;21066926;28;20602;-69
2021/11/19 14:49:06;;;;;;;0.20;0.10;;;18.80;99.90;;;;;;21066202;28;20315;-70
2021/11/19 14:59:14;;;;;;;0.20;0.10;;;19.30;99.90;;;;;;21044604;28;20216;-68
2021/11/19 15:09:24;;;;;;;0.73;0.73;;;20.20;99.90;;;;;;21056319;28;20235;-68
2021/11/19 15:19:44;;;;;;;0.20;0.10;;;20.00;99.90;;;;;;20977777;28;20665;-67
2021/11/19 15:29:49;;;;;;;0.20;0.00;;;18.50;99.90;;;;;;20976090;28;20216;-68
2021/11/19 15:39:55;;;;;;;0.20;0.10;;;17.60;99.90;;;;;;20976439;28;20480;-69
2021/11/19 15:50:05;;;;;;;0.20;0.10;;;17.00;99.90;;;;;;20973804;28;20220;-68
2021/11/19 16:00:14;;;;;;;0.20;0.10;;;16.00;99.90;;;;;;20972387;28;20260;-68
2021/11/19 16:10:59;;;;;;;0.20;0.10;;;15.50;99.90;;;;;;21002729;28;20223;-68
2021/11/19 16:21:06;;;;;;;0.20;0.10;;;15.40;99.90;;;;;;21050165;28;20290;-67
2021/11/19 16:31:15;;;;;;;0.20;0.00;;;15.00;99.90;;;;;;21071942;28;20223;-68
2021/11/19 16:41:19;;;;;;;0.20;0.00;;;14.50;99.90;;;;;;21052945;28;20602;-67
2021/11/19 16:51:26;;;;;;;0.83;0.83;;;14.00;99.90;;;;;;21006258;28;20227;-68
2021/11/19 17:01:33;;;;;;;0.20;0.10;;;13.60;99.90;;;;;;21065852;28;20223;-67
2021/11/19 17:11:38;;;;;;;0.20;0.10;;;13.30;99.90;;;;;;21039979;28;20217;-68
2021/11/19 17:21:42;;;;;;;0.20;0.10;;;13.00;99.90;;;;;;20986361;28;20224;-67
2021/11/19 17:31:49;;;;;;;0.20;0.10;;;12.70;99.90;;;;;;20984716;28;20546;-67
2021/11/19 17:41:53;;;;;;;0.20;0.10;;;12.60;99.90;;;;;;20967590;28;20292;-68
2021/11/19 17:52:00;;;;;;;0.20;0.10;;;12.40;99.90;;;;;;20985682;28;20224;-68
2021/11/19 18:02:09;;;;;;;0.20;0.10;;;12.20;99.90;;;;;;20983182;28;20221;-71
2021/11/19 18:12:17;;;;;;;0.20;0.10;;;12.00;99.90;;;;;;21006523;28;20318;-69
2021/11/19 18:22:25;;;;;;;0.20;0.10;;;12.00;99.90;;;;;;21040938;28;20511;-69
2021/11/19 18:32:33;;;;;;;0.20;0.10;;;12.10;99.90;;;;;;21033586;28;20724;-68
2021/11/19 18:42:36;;;;;;;0.20;0.10;;;12.00;99.90;;;;;;20983050;28;20204;-68
2021/11/19 18:52:47;;;;;;;0.20;0.10;;;11.80;99.90;;;;;;20982723;28;20263;-69
2021/11/19 19:02:51;;;;;;;12.87;4.73;;;11.80;99.90;;;;;;20980665;28;20322;-69
2021/11/19 19:12:57;;;;;;;0.20;0.10;;;11.80;99.90;;;;;;21018075;28;20192;-71
2021/11/19 19:23:03;;;;;;;0.33;0.33;;;11.60;99.90;;;;;;21064983;28;20544;-69
2021/11/19 19:33:09;;;;;;;0.20;0.10;;;11.50;99.90;;;;;;21034675;28;20649;-69
2021/11/19 19:43:15;;;;;;;0.20;0.10;;;11.50;99.90;;;;;;21008899;28;20203;-69
2021/11/19 19:53:22;;;;;;;0.20;0.10;;;11.40;99.90;;;;;;20998073;28;20271;-69
2021/11/19 20:13:50;;;;;;;0.20;0.10;;;11.50;99.90;;;;;;21727909;22;20562;-77
2021/11/19 20:23:58;;;;;;;0.20;0.10;;;11.40;99.90;;;;;;20728167;28;20226;-76
2021/11/19 20:45:21;;;;;;;0.20;0.10;;;11.30;99.90;;;;;;20673296;28;20579;-77
2021/11/19 20:56:10;;;;;;;0.20;0.10;;;11.20;99.90;;;;;;20726603;28;20226;-76
2021/11/19 21:18:52;;;;;;;0.20;0.10;;;11.20;99.90;;;;;;20579377;28;20210;-75
2021/11/19 21:28:59;;;;;;;0.20;0.10;;;11.20;99.90;;;;;;20558710;28;20271;-75
2021/11/19 21:39:05;;;;;;;0.20;0.10;;;11.10;99.90;;;;;;20539912;28;20197;-76
2021/11/19 21:49:11;;;;;;;0.77;0.77;;;11.00;99.90;;;;;;20579727;28;20236;-75
2021/11/19 22:10:22;;;;;;;0.20;0.07;;;10.80;99.90;;;;;;20611019;28;20338;-74
2021/11/19 22:20:30;;;;;;;0.20;0.10;;;10.90;99.90;;;;;;20738215;28;20194;-76
2021/11/19 22:30:39;;;;;;;0.20;0.00;;;10.90;99.90;;;;;;20736857;28;20690;-75
2021/11/19 22:40:45;;;;;;;0.20;0.10;;;10.90;99.90;;;;;;20735939;28;20194;-75
2021/11/19 22:50:53;;;;;;;0.20;0.00;;;10.70;99.90;;;;;;20734345;28;20250;-73
2021/11/19 23:01:01;;;;;;;0.20;0.10;;;10.90;99.90;;;;;;20732763;28;20624;-73
2021/11/19 23:11:09;;;;;;;0.20;0.10;;;10.60;99.90;;;;;;20732717;28;20234;-75
2021/11/19 23:21:17;;;;;;;0.20;0.10;;;10.40;99.90;;;;;;20733584;28;20546;-73
2021/11/19 23:31:26;;;;;;;0.20;0.10;;;10.60;99.90;;;;;;20732348;28;20952;-75
2021/11/19 23:41:30;;;;;;;0.20;0.10;;;10.40;99.90;;;;;;20732236;28;20245;-74
2021/11/19 23:51:36;;;;;;;0.30;0.30;;;10.30;99.90;;;;;;20732410;28;20575;-72
